Time;durP1;ratioP1;P1;durP2;ratioP2;P2;SDS_P1;SDS_P2;PMS_P1;PMS_P2;Temp;Humidity;BMP_temperature;BMP_pressure;BME280_temperature;BME280_humidity;BME280_pressure;Samples;Min_cycle;Max_cycle;Signal;HPM_P1;HPM_P2
2021/11/05 00:00:24;;;;;;;4.07;3.10;;;;;;;;;;5095920;28;20793;-89
2021/11/05 00:03:10;;;;;;;3.80;3.07;;;;;;;;;;5095655;28;20209;-88
2021/11/05 00:05:56;;;;;;;4.13;3.17;;;;;;;;;;5093902;28;20185;-90
2021/11/05 00:08:41;;;;;;;3.30;3.10;;;;;;;;;;5094849;28;20185;-88
2021/11/05 00:11:27;;;;;;;3.63;3.43;;;;;;;;;;5099141;28;20771;-88
2021/11/05 00:14:12;;;;;;;3.67;3.37;;;;;;;;;;5098529;28;20323;-87
2021/11/05 00:16:57;;;;;;;3.60;3.40;;;;;;;;;;5098896;28;20815;-89
2021/11/05 00:19:44;;;;;;;3.80;3.50;;;;;;;;;;5099919;28;20583;-88
2021/11/05 00:22:29;;;;;;;3.83;3.57;;;;;;;;;;5098145;28;20243;-87
2021/11/05 00:25:14;;;;;;;4.57;3.43;;;;;;;;;;5097252;28;20780;-89
2021/11/05 00:28:02;;;;;;;3.73;3.53;;;;;;;;;;5097934;28;20271;-88
2021/11/05 00:30:47;;;;;;;3.93;3.63;;;;;;;;;;5096712;28;20185;-88
2021/11/05 00:33:32;;;;;;;6.63;4.10;;;;;;;;;;5095582;28;20555;-88
2021/11/05 00:36:19;;;;;;;4.17;3.87;;;;;;;;;;5095658;28;20189;-89
2021/11/05 00:39:04;;;;;;;7.33;4.23;;;;;;;;;;5095526;28;20188;-87
2021/11/05 00:41:49;;;;;;;5.07;4.20;;;;;;;;;;5094580;28;20232;-87
2021/11/05 00:44:34;;;;;;;5.50;5.00;;;;;;;;;;5095153;28;20251;-86
2021/11/05 00:47:19;;;;;;;5.77;5.27;;;;;;;;;;5093969;28;20185;-86
2021/11/05 00:50:05;;;;;;;5.40;5.00;;;;;;;;;;5094305;28;20220;-85
2021/11/05 00:52:51;;;;;;;6.07;5.57;;;;;;;;;;5093731;28;20205;-85
2021/11/05 00:55:36;;;;;;;5.97;5.47;;;;;;;;;;5094027;28;20324;-85
2021/11/05 00:58:21;;;;;;;6.53;5.80;;;;;;;;;;5093531;28;20185;-85
2021/11/05 01:01:06;;;;;;;7.13;6.40;;;;;;;;;;5094454;28;20181;-84
2021/11/05 01:03:51;;;;;;;6.63;6.10;;;;;;;;;;5094278;28;20592;-84
2021/11/05 01:06:36;;;;;;;6.83;6.20;;;;;;;;;;5094620;28;20267;-85
2021/11/05 01:09:23;;;;;;;8.17;6.27;;;;;;;;;;5093943;28;20193;-84
2021/11/05 01:12:09;;;;;;;7.07;6.37;;;;;;;;;;5094494;28;20189;-84
2021/11/05 01:14:54;;;;;;;6.70;6.10;;;;;;;;;;5094362;28;20212;-85
2021/11/05 01:17:40;;;;;;;7.03;6.43;;;;;;;;;;5094218;28;20189;-84
2021/11/05 01:20:25;;;;;;;8.00;6.43;;;;;;;;;;5093364;28;20184;-85
2021/11/05 01:23:10;;;;;;;9.03;6.83;;;;;;;;;;5094181;28;20181;-84
2021/11/05 01:25:56;;;;;;;8.93;6.93;;;;;;;;;;5095773;28;20676;-85
2021/11/05 01:28:42;;;;;;;7.33;6.73;;;;;;;;;;5094187;28;20645;-85
2021/11/05 01:31:27;;;;;;;7.40;6.60;;;;;;;;;;5095589;28;20303;-88
2021/11/05 01:34:12;;;;;;;7.70;6.90;;;;;;;;;;5095842;28;20205;-87
2021/11/05 01:36:57;;;;;;;7.10;6.50;;;;;;;;;;5096658;28;20185;-88
2021/11/05 01:39:42;;;;;;;7.47;6.80;;;;;;;;;;5096431;28;20259;-86
2021/11/05 01:42:29;;;;;;;7.50;6.80;;;;;;;;;;5095265;28;20188;-87
2021/11/05 01:45:14;;;;;;;6.90;6.30;;;;;;;;;;5095171;28;20192;-86
2021/11/05 01:47:59;;;;;;;7.03;6.40;;;;;;;;;;5094697;28;20251;-86
2021/11/05 01:50:45;;;;;;;8.03;6.40;;;;;;;;;;5094642;28;20310;-86
2021/11/05 01:53:30;;;;;;;6.67;6.07;;;;;;;;;;5095019;28;20201;-85
2021/11/05 01:56:16;;;;;;;7.03;6.43;;;;;;;;;;5094952;28;20260;-85
2021/11/05 01:59:02;;;;;;;7.50;6.57;;;;;;;;;;5094778;28;20545;-86
2021/11/05 02:01:47;;;;;;;6.70;6.10;;;;;;;;;;5094517;28;20270;-85
2021/11/05 02:04:33;;;;;;;6.40;5.90;;;;;;;;;;5094072;28;20664;-86
2021/11/05 02:07:18;;;;;;;7.00;6.37;;;;;;;;;;5092756;28;20304;-86
2021/11/05 02:10:04;;;;;;;7.03;6.30;;;;;;;;;;5093484;28;20196;-86
2021/11/05 02:12:50;;;;;;;6.73;6.10;;;;;;;;;;5093185;28;20212;-87
2021/11/05 02:15:36;;;;;;;7.43;6.43;;;;;;;;;;5093176;28;20200;-87
2021/11/05 02:18:22;;;;;;;6.30;5.80;;;;;;;;;;5093192;28;20189;-87
2021/11/05 02:21:09;;;;;;;6.70;6.00;;;;;;;;;;5093299;28;20193;-87
2021/11/05 02:23:55;;;;;;;6.97;5.90;;;;;;;;;;5093012;28;20189;-87
2021/11/05 02:26:40;;;;;;;6.77;5.83;;;;;;;;;;5093008;28;20189;-87
2021/11/05 02:29:26;;;;;;;6.50;5.90;;;;;;;;;;5093269;28;20733;-87
2021/11/05 02:32:12;;;;;;;6.67;6.00;;;;;;;;;;5092487;28;20184;-86
2021/11/05 02:34:57;;;;;;;7.43;6.30;;;;;;;;;;5093062;28;20209;-87
2021/11/05 02:37:42;;;;;;;7.17;6.03;;;;;;;;;;5091796;28;20259;-86
2021/11/05 02:40:29;;;;;;;6.93;6.30;;;;;;;;;;5092283;28;20728;-86
2021/11/05 02:43:14;;;;;;;6.60;6.00;;;;;;;;;;5092295;28;20247;-86
2021/11/05 02:45:59;;;;;;;6.57;5.97;;;;;;;;;;5092460;28;20192;-86
2021/11/05 02:48:44;;;;;;;11.50;6.30;;;;;;;;;;5092155;28;20180;-86
2021/11/05 02:51:29;;;;;;;6.27;5.67;;;;;;;;;;5092188;28;20220;-86
2021/11/05 02:54:15;;;;;;;6.60;6.00;;;;;;;;;;5092284;28;20255;-86
2021/11/05 02:57:01;;;;;;;6.77;6.23;;;;;;;;;;5092523;28;20185;-86
2021/11/05 02:59:46;;;;;;;6.80;6.10;;;;;;;;;;5092086;28;20204;-86
2021/11/05 03:02:31;;;;;;;7.43;6.00;;;;;;;;;;5091746;28;20669;-86
2021/11/05 03:05:16;;;;;;;7.53;6.73;;;;;;;;;;5092055;28;20279;-86
2021/11/05 03:08:01;;;;;;;6.90;6.23;;;;;;;;;;5091854;28;20259;-86
2021/11/05 03:10:47;;;;;;;6.77;5.97;;;;;;;;;;5092064;28;20687;-86
2021/11/05 03:13:33;;;;;;;8.23;6.67;;;;;;;;;;5091354;28;20193;-85
2021/11/05 03:16:18;;;;;;;13.83;7.57;;;;;;;;;;5091544;28;20557;-84
2021/11/05 03:19:04;;;;;;;12.80;8.23;;;;;;;;;;5091620;28;20643;-85
2021/11/05 03:21:50;;;;;;;9.80;7.27;;;;;;;;;;5091235;28;20287;-85
2021/11/05 03:24:35;;;;;;;6.80;6.17;;;;;;;;;;5090914;28;20189;-86
2021/11/05 03:27:20;;;;;;;6.57;5.87;;;;;;;;;;5091421;28;20185;-85
2021/11/05 03:30:08;;;;;;;10.37;6.20;;;;;;;;;;5091688;28;20189;-85
2021/11/05 03:32:53;;;;;;;6.90;6.27;;;;;;;;;;5091379;28;20259;-85
2021/11/05 03:35:38;;;;;;;9.03;6.30;;;;;;;;;;5091400;28;20593;-86
2021/11/05 03:38:24;;;;;;;6.97;6.23;;;;;;;;;;5091224;28;20616;-85
2021/11/05 03:41:08;;;;;;;6.90;6.30;;;;;;;;;;5091561;28;20236;-86
2021/11/05 03:43:54;;;;;;;7.83;7.07;;;;;;;;;;5091876;28;20185;-85
2021/11/05 03:46:40;;;;;;;10.50;7.60;;;;;;;;;;5095753;28;20664;-86
2021/11/05 03:49:26;;;;;;;8.37;7.57;;;;;;;;;;5095157;28;20767;-86
2021/11/05 03:52:11;;;;;;;8.30;7.50;;;;;;;;;;5095314;28;20215;-86
2021/11/05 03:54:56;;;;;;;9.70;7.83;;;;;;;;;;5095290;28;20287;-85
2021/11/05 03:57:41;;;;;;;7.50;6.80;;;;;;;;;;5095377;28;20184;-86
2021/11/05 04:00:26;;;;;;;8.00;7.20;;;;;;;;;;5095414;28;20239;-86
2021/11/05 04:03:12;;;;;;;8.03;7.23;;;;;;;;;;5095264;28;20205;-85
2021/11/05 04:05:57;;;;;;;9.20;7.60;;;;;;;;;;5095521;28;20280;-85
2021/11/05 04:08:42;;;;;;;8.90;7.43;;;;;;;;;;5095040;28;20180;-85
2021/11/05 04:11:27;;;;;;;8.53;7.73;;;;;;;;;;5095312;28;20259;-86
2021/11/05 04:14:13;;;;;;;8.33;7.53;;;;;;;;;;5094828;28;20251;-86
2021/11/05 04:16:58;;;;;;;9.00;8.00;;;;;;;;;;5095125;28;20304;-85
2021/11/05 04:19:44;;;;;;;9.87;7.90;;;;;;;;;;5094881;28;20181;-85
2021/11/05 04:22:29;;;;;;;10.43;8.17;;;;;;;;;;5094249;28;20274;-85
2021/11/05 04:25:14;;;;;;;10.20;8.57;;;;;;;;;;5094886;28;20246;-85
2021/11/05 04:27:59;;;;;;;9.63;8.70;;;;;;;;;;5094442;28;20231;-85
2021/11/05 04:30:45;;;;;;;11.87;8.63;;;;;;;;;;5094485;28;20181;-85
2021/11/05 04:33:31;;;;;;;8.63;7.77;;;;;;;;;;5087935;28;20190;-85
2021/11/05 04:36:21;;;;;;;8.70;7.80;;;;;;;;;;5074531;28;20217;-85
2021/11/05 04:39:06;;;;;;;9.33;8.43;;;;;;;;;;5074213;28;20661;-85
2021/11/05 04:41:52;;;;;;;8.87;7.97;;;;;;;;;;5073790;28;20613;-84
2021/11/05 04:44:37;;;;;;;8.57;7.77;;;;;;;;;;5073991;28;20301;-83
2021/11/05 04:47:22;;;;;;;12.87;8.27;;;;;;;;;;5073653;28;20562;-87
2021/11/05 04:50:09;;;;;;;8.30;7.23;;;;;;;;;;5073769;28;20224;-86
2021/11/05 04:52:55;;;;;;;8.77;7.97;;;;;;;;;;5073374;28;20193;-86
2021/11/05 04:55:41;;;;;;;9.63;7.57;;;;;;;;;;5072741;28;20252;-86
2021/11/05 04:58:26;;;;;;;8.23;7.53;;;;;;;;;;5073565;28;20206;-86
2021/11/05 05:01:11;;;;;;;8.80;8.00;;;;;;;;;;5074410;28;20205;-85
2021/11/05 05:03:56;;;;;;;9.57;8.03;;;;;;;;;;5093239;28;20201;-84
2021/11/05 05:06:41;;;;;;;9.50;8.00;;;;;;;;;;5094088;28;20192;-85
2021/11/05 05:09:27;;;;;;;10.00;8.83;;;;;;;;;;5093864;28;20197;-85
2021/11/05 05:12:12;;;;;;;9.23;8.33;;;;;;;;;;5093721;28;20208;-87
2021/11/05 05:14:57;;;;;;;9.50;8.60;;;;;;;;;;5091629;28;20339;-84
2021/11/05 05:17:42;;;;;;;8.40;7.60;;;;;;;;;;5074426;28;20320;-84
2021/11/05 05:20:27;;;;;;;9.10;8.30;;;;;;;;;;5074359;28;20235;-87
2021/11/05 05:23:13;;;;;;;10.70;8.50;;;;;;;;;;5087783;28;20201;-85
2021/11/05 05:25:59;;;;;;;10.90;8.70;;;;;;;;;;5091703;28;20275;-85
2021/11/05 05:28:44;;;;;;;15.80;10.97;;;;;;;;;;5083098;28;20216;-85
2021/11/05 05:31:29;;;;;;;13.27;11.00;;;;;;;;;;5073455;28;20189;-85
2021/11/05 05:34:14;;;;;;;12.27;10.27;;;;;;;;;;5074194;28;20267;-84
2021/11/05 05:36:59;;;;;;;12.63;10.83;;;;;;;;;;5093440;28;20185;-83
2021/11/05 05:39:44;;;;;;;13.03;11.17;;;;;;;;;;5093351;28;20205;-83
2021/11/05 05:42:30;;;;;;;10.07;8.77;;;;;;;;;;5095110;28;20659;-87
2021/11/05 05:45:15;;;;;;;9.87;8.40;;;;;;;;;;5095852;28;20314;-88
2021/11/05 05:48:00;;;;;;;10.37;9.00;;;;;;;;;;5094101;28;20185;-85
2021/11/05 05:50:45;;;;;;;10.90;9.60;;;;;;;;;;5093603;28;20320;-86
2021/11/05 05:53:30;;;;;;;9.40;8.10;;;;;;;;;;5093389;28;20640;-87
2021/11/05 05:56:15;;;;;;;10.00;8.53;;;;;;;;;;5088756;28;20213;-84
2021/11/05 05:59:02;;;;;;;9.30;8.40;;;;;;;;;;5072196;28;20194;-84
2021/11/05 06:01:47;;;;;;;12.67;9.83;;;;;;;;;;5091632;28;20557;-84
2021/11/05 06:04:32;;;;;;;10.50;9.27;;;;;;;;;;5092528;28;20704;-85
2021/11/05 06:07:17;;;;;;;9.70;8.70;;;;;;;;;;5092340;28;20300;-82
2021/11/05 06:10:02;;;;;;;17.13;9.70;;;;;;;;;;5092672;28;20185;-82
2021/11/05 06:12:47;;;;;;;9.90;9.00;;;;;;;;;;5092424;28;20701;-82
2021/11/05 06:15:33;;;;;;;10.53;9.43;;;;;;;;;;5092511;28;20676;-82
2021/11/05 06:18:19;;;;;;;11.90;9.57;;;;;;;;;;5092334;28;20496;-82
2021/11/05 06:21:04;;;;;;;10.87;9.77;;;;;;;;;;5092922;28;20228;-81
2021/11/05 06:23:50;;;;;;;15.07;10.07;;;;;;;;;;5092078;28;20706;-81
2021/11/05 06:26:35;;;;;;;11.67;9.53;;;;;;;;;;5091581;28;20188;-81
2021/11/05 06:29:20;;;;;;;18.63;11.70;;;;;;;;;;5092298;28;20196;-81
2021/11/05 06:32:07;;;;;;;24.60;13.00;;;;;;;;;;5091223;28;20552;-84
2021/11/05 06:34:52;;;;;;;13.87;10.33;;;;;;;;;;5092003;28;20189;-84
2021/11/05 06:37:38;;;;;;;10.80;9.50;;;;;;;;;;5092011;28;20188;-83
2021/11/05 06:40:23;;;;;;;10.20;8.67;;;;;;;;;;5092134;28;20293;-82
2021/11/05 06:43:09;;;;;;;13.50;9.10;;;;;;;;;;5092032;28;20184;-82
2021/11/05 06:45:54;;;;;;;10.70;9.17;;;;;;;;;;5092274;28;20184;-82
2021/11/05 06:48:41;;;;;;;10.20;9.07;;;;;;;;;;5091541;28;20199;-81
2021/11/05 06:51:26;;;;;;;9.17;8.27;;;;;;;;;;5091596;28;20228;-82
2021/11/05 06:54:11;;;;;;;9.20;8.30;;;;;;;;;;5092010;28;20548;-82
2021/11/05 06:56:56;;;;;;;9.63;7.90;;;;;;;;;;5091595;28;20323;-82
2021/11/05 06:59:41;;;;;;;9.03;8.10;;;;;;;;;;5091802;28;20312;-82
2021/11/05 07:02:26;;;;;;;9.37;8.57;;;;;;;;;;5091856;28;20556;-82
2021/11/05 07:05:14;;;;;;;8.70;7.90;;;;;;;;;;5091606;28;20184;-82
2021/11/05 07:07:59;;;;;;;9.07;8.07;;;;;;;;;;5091517;28;20185;-82
2021/11/05 07:10:45;;;;;;;9.07;8.27;;;;;;;;;;5091832;28;20185;-82
2021/11/05 07:13:31;;;;;;;8.63;7.83;;;;;;;;;;5091403;28;20189;-82
2021/11/05 07:16:16;;;;;;;9.30;8.40;;;;;;;;;;5091616;28;20578;-82
2021/11/05 07:19:01;;;;;;;8.47;7.67;;;;;;;;;;5090357;28;20188;-82
2021/11/05 07:21:48;;;;;;;9.90;8.63;;;;;;;;;;5091278;28;20269;-82
2021/11/05 07:24:35;;;;;;;8.93;8.03;;;;;;;;;;5091460;28;20669;-82
2021/11/05 07:27:20;;;;;;;15.10;10.43;;;;;;;;;;5091406;28;20690;-81
2021/11/05 07:30:08;;;;;;;18.47;12.20;;;;;;;;;;5091361;28;20276;-82
2021/11/05 07:32:53;;;;;;;20.97;12.47;;;;;;;;;;5091231;28;20561;-82
2021/11/05 07:35:38;;;;;;;22.30;11.23;;;;;;;;;;5091371;28;20212;-81
2021/11/05 07:38:24;;;;;;;15.70;9.70;;;;;;;;;;5091255;28;20204;-82
2021/11/05 07:41:11;;;;;;;9.57;8.73;;;;;;;;;;5091220;28;20295;-82
2021/11/05 07:43:56;;;;;;;9.40;8.50;;;;;;;;;;5091170;28;20193;-82
2021/11/05 07:46:42;;;;;;;9.10;8.20;;;;;;;;;;5091251;28;20181;-82
2021/11/05 07:49:27;;;;;;;8.73;7.87;;;;;;;;;;5090630;28;20231;-83
2021/11/05 07:52:12;;;;;;;9.63;8.73;;;;;;;;;;5091570;28;20189;-82
2021/11/05 07:54:59;;;;;;;9.47;8.57;;;;;;;;;;5090806;28;20216;-82
2021/11/05 07:57:44;;;;;;;8.63;7.83;;;;;;;;;;5091255;28;20215;-82
2021/11/05 08:00:29;;;;;;;8.90;8.03;;;;;;;;;;5090900;28;20189;-82
2021/11/05 08:03:15;;;;;;;9.53;8.07;;;;;;;;;;5091837;28;20201;-82
2021/11/05 08:06:01;;;;;;;8.77;7.97;;;;;;;;;;5090605;28;20185;-81
2021/11/05 08:08:45;;;;;;;9.33;8.53;;;;;;;;;;5091227;28;20554;-81
2021/11/05 08:11:34;;;;;;;10.00;7.43;;;;;;;;;;5090841;28;20201;-81
2021/11/05 08:14:20;;;;;;;9.07;8.13;;;;;;;;;;5091113;28;20189;-81
2021/11/05 08:17:05;;;;;;;8.97;8.17;;;;;;;;;;5090598;28;20205;-82
2021/11/05 08:19:50;;;;;;;9.43;8.63;;;;;;;;;;5090790;28;20185;-82
2021/11/05 08:22:35;;;;;;;9.20;8.27;;;;;;;;;;5090840;28;20181;-82
2021/11/05 08:25:20;;;;;;;9.57;8.17;;;;;;;;;;5090487;28;20223;-82
2021/11/05 08:28:07;;;;;;;8.60;7.90;;;;;;;;;;5090611;28;20186;-82
2021/11/05 08:30:53;;;;;;;8.60;7.80;;;;;;;;;;5093075;28;20228;-82
2021/11/05 08:33:38;;;;;;;8.53;7.73;;;;;;;;;;5093560;28;20266;-82
2021/11/05 08:36:25;;;;;;;10.30;8.20;;;;;;;;;;5093811;28;20205;-81
2021/11/05 08:39:10;;;;;;;9.67;8.67;;;;;;;;;;5094618;28;20185;-82
2021/11/05 08:41:55;;;;;;;11.27;8.27;;;;;;;;;;5093997;28;20316;-82
2021/11/05 08:44:41;;;;;;;9.43;8.37;;;;;;;;;;5094348;28;20200;-81
2021/11/05 08:47:26;;;;;;;9.47;8.67;;;;;;;;;;5094058;28;20243;-82
2021/11/05 08:50:13;;;;;;;11.10;8.93;;;;;;;;;;5094322;28;20236;-82
2021/11/05 08:52:59;;;;;;;10.10;8.93;;;;;;;;;;5094147;28;20188;-82
2021/11/05 08:55:44;;;;;;;9.27;8.37;;;;;;;;;;5093766;28;20542;-82
2021/11/05 08:58:30;;;;;;;9.80;8.77;;;;;;;;;;5093990;28;20209;-82
2021/11/05 09:01:17;;;;;;;12.07;8.97;;;;;;;;;;5093717;28;20243;-82
2021/11/05 09:04:02;;;;;;;9.60;8.70;;;;;;;;;;5094188;28;20184;-83
2021/11/05 09:06:47;;;;;;;10.80;9.70;;;;;;;;;;5093835;28;20259;-81
2021/11/05 09:09:33;;;;;;;10.17;9.10;;;;;;;;;;5093867;28;20189;-82
2021/11/05 09:12:19;;;;;;;16.27;8.93;;;;;;;;;;5093664;28;20243;-82
2021/11/05 09:15:04;;;;;;;9.33;8.57;;;;;;;;;;5094007;28;20593;-82
2021/11/05 09:17:52;;;;;;;9.40;8.40;;;;;;;;;;5093599;28;20303;-82
2021/11/05 09:20:38;;;;;;;9.60;8.70;;;;;;;;;;5093672;28;20184;-83
2021/11/05 09:23:24;;;;;;;9.20;8.40;;;;;;;;;;5093717;28;20247;-83
2021/11/05 09:26:09;;;;;;;9.33;8.53;;;;;;;;;;5093524;28;20685;-82
2021/11/05 09:28:54;;;;;;;9.70;8.80;;;;;;;;;;5093870;28;20201;-82
2021/11/05 09:31:40;;;;;;;11.87;8.57;;;;;;;;;;5093173;28;20197;-82
2021/11/05 09:34:31;;;;;;;9.83;8.93;;;;;;;;;;5093496;28;20692;-82
2021/11/05 09:37:16;;;;;;;10.20;9.20;;;;;;;;;;5093121;28;20201;-82
2021/11/05 09:40:02;;;;;;;12.00;9.00;;;;;;;;;;5093051;28;20311;-82
2021/11/05 09:42:49;;;;;;;11.30;10.10;;;;;;;;;;5092526;28;20545;-82
2021/11/05 09:45:34;;;;;;;11.13;9.33;;;;;;;;;;5092761;28;20189;-82
2021/11/05 09:48:21;;;;;;;9.70;8.80;;;;;;;;;;5093492;28;20323;-81
2021/11/05 09:51:08;;;;;;;10.93;9.93;;;;;;;;;;5092860;28;20301;-82
2021/11/05 09:53:53;;;;;;;11.23;9.67;;;;;;;;;;5092870;28;20601;-81
2021/11/05 09:56:38;;;;;;;9.73;8.73;;;;;;;;;;5092743;28;20213;-81
2021/11/05 09:59:23;;;;;;;11.63;9.97;;;;;;;;;;5093300;28;20184;-83
2021/11/05 10:02:10;;;;;;;9.70;8.80;;;;;;;;;;5093093;28;20200;-83
2021/11/05 10:04:58;;;;;;;10.73;9.63;;;;;;;;;;5092810;28;20303;-82
2021/11/05 10:07:49;;;;;;;10.70;9.70;;;;;;;;;;5092987;28;20751;-82
2021/11/05 10:10:35;;;;;;;12.97;9.73;;;;;;;;;;5092455;28;20189;-82
2021/11/05 10:13:24;;;;;;;10.67;9.57;;;;;;;;;;5093063;28;20656;-81
2021/11/05 10:16:13;;;;;;;11.43;9.60;;;;;;;;;;5092900;28;20561;-81
2021/11/05 10:19:01;;;;;;;11.60;9.67;;;;;;;;;;5093183;28;20180;-82
2021/11/05 10:21:47;;;;;;;11.17;10.13;;;;;;;;;;5092652;28;20198;-80
2021/11/05 10:24:33;;;;;;;10.70;9.70;;;;;;;;;;5093210;28;20185;-81
2021/11/05 10:27:27;;;;;;;11.90;9.90;;;;;;;;;;5092575;28;20379;-82
2021/11/05 10:30:12;;;;;;;11.67;10.53;;;;;;;;;;5092829;28;20184;-82
2021/11/05 10:32:58;;;;;;;12.23;10.93;;;;;;;;;;5093021;28;20205;-81
2021/11/05 10:35:45;;;;;;;10.90;9.90;;;;;;;;;;5093039;28;20197;-82
2021/11/05 10:38:31;;;;;;;11.50;10.37;;;;;;;;;;5092857;28;20247;-81
2021/11/05 10:41:20;;;;;;;10.53;9.47;;;;;;;;;;5092117;28;20257;-82
2021/11/05 10:44:13;;;;;;;12.67;9.97;;;;;;;;;;5092231;28;20189;-81
2021/11/05 10:47:06;;;;;;;10.97;9.87;;;;;;;;;;5092067;28;20181;-79
2021/11/05 10:49:51;;;;;;;11.53;10.27;;;;;;;;;;5092280;28;20225;-81
2021/11/05 10:52:36;;;;;;;11.33;10.07;;;;;;;;;;5092115;28;20196;-81
2021/11/05 10:55:21;;;;;;;11.63;10.17;;;;;;;;;;5093630;28;20196;-91
2021/11/05 10:58:08;;;;;;;12.73;10.10;;;;;;;;;;5096846;28;20247;-92
2021/11/05 11:00:55;;;;;;;11.80;10.60;;;;;;;;;;5096921;28;20185;-93
2021/11/05 11:03:44;;;;;;;10.93;9.80;;;;;;;;;;5095966;28;20247;-90
2021/11/05 11:06:30;;;;;;;11.80;10.00;;;;;;;;;;5093557;28;20663;-91
2021/11/05 11:09:18;;;;;;;11.63;10.10;;;;;;;;;;5096499;28;20181;-92
2021/11/05 11:12:05;;;;;;;12.20;11.00;;;;;;;;;;5096312;28;20185;-92
2021/11/05 11:14:51;;;;;;;11.97;10.87;;;;;;;;;;5097616;28;20251;-88
2021/11/05 11:17:51;;;;;;;11.97;10.00;;;;;;;;;;5093549;28;20209;-85
2021/11/05 11:20:37;;;;;;;11.10;10.00;;;;;;;;;;5093626;28;20204;-88
2021/11/05 11:23:22;;;;;;;11.00;9.87;;;;;;;;;;5092512;28;20657;-84
2021/11/05 11:26:08;;;;;;;11.27;10.07;;;;;;;;;;5093591;28;20180;-84
2021/11/05 11:28:54;;;;;;;12.53;10.10;;;;;;;;;;5097143;28;20551;-91
2021/11/05 11:31:41;;;;;;;11.97;9.53;;;;;;;;;;5094070;28;20734;-84
2021/11/05 11:34:27;;;;;;;10.97;9.87;;;;;;;;;;5094205;28;20204;-89
2021/11/05 11:37:13;;;;;;;11.63;10.30;;;;;;;;;;5094571;28;20208;-88
2021/11/05 11:39:58;;;;;;;12.97;11.37;;;;;;;;;;5095465;28;20186;-92
2021/11/05 11:42:44;;;;;;;11.80;10.70;;;;;;;;;;5094580;28;20235;-85
2021/11/05 11:45:29;;;;;;;13.13;11.80;;;;;;;;;;5093338;28;20371;-86
2021/11/05 11:48:29;;;;;;;12.87;11.50;;;;;;;;;;5093841;28;20255;-85
2021/11/05 11:51:33;;;;;;;13.97;11.30;;;;;;;;;;5088607;28;20229;-91
2021/11/05 11:54:30;;;;;;;12.90;11.50;;;;;;;;;;5095878;28;20189;-86
2021/11/05 11:57:17;;;;;;;14.17;11.60;;;;;;;;;;5096346;28;20243;-87
2021/11/05 12:00:09;;;;;;;12.63;10.87;;;;;;;;;;5097613;28;20188;-87
2021/11/05 12:03:02;;;;;;;14.98;12.15;;;;;;;;;;5095164;28;20758;-88
2021/11/05 12:05:47;;;;;;;12.20;10.97;;;;;;;;;;5099651;28;20185;-87
2021/11/05 12:08:44;;;;;;;11.80;10.10;;;;;;;;;;5099380;28;20178;-89
2021/11/05 12:11:30;;;;;;;11.10;10.00;;;;;;;;;;5097498;28;20209;-85
2021/11/05 12:14:16;;;;;;;12.43;11.13;;;;;;;;;;5098109;28;20335;-87
2021/11/05 12:17:02;;;;;;;14.47;11.30;;;;;;;;;;5097350;28;20209;-84
2021/11/05 12:19:48;;;;;;;11.60;10.40;;;;;;;;;;5097878;28;20707;-86
2021/11/05 12:22:33;;;;;;;11.50;10.30;;;;;;;;;;5096483;28;20205;-84
2021/11/05 12:25:19;;;;;;;11.10;9.87;;;;;;;;;;5096916;28;20189;-90
2021/11/05 12:28:16;;;;;;;13.07;10.87;;;;;;;;;;5097668;28;20227;-90
2021/11/05 12:31:20;;;;;;;15.47;11.40;;;;;;;;;;5098668;28;20193;-87
2021/11/05 12:34:20;;;;;;;14.90;11.10;;;;;;;;;;5097790;28;20227;-85
2021/11/05 12:37:06;;;;;;;12.27;10.97;;;;;;;;;;5095264;28;20288;-89
2021/11/05 12:39:51;;;;;;;11.93;10.73;;;;;;;;;;5096642;28;20188;-89
2021/11/05 12:42:37;;;;;;;13.70;11.23;;;;;;;;;;5096084;28;20224;-89
2021/11/05 12:45:32;;;;;;;12.50;11.20;;;;;;;;;;5097360;28;20181;-92
2021/11/05 12:48:17;;;;;;;13.57;11.20;;;;;;;;;;5098246;28;20190;-89
2021/11/05 12:51:03;;;;;;;12.80;11.50;;;;;;;;;;5096455;28;20734;-89
2021/11/05 12:54:00;;;;;;;14.23;11.97;;;;;;;;;;5098182;28;20205;-91
2021/11/05 12:56:52;;;;;;;11.30;10.10;;;;;;;;;;5098160;28;20282;-90
2021/11/05 12:59:37;;;;;;;11.67;10.40;;;;;;;;;;5096997;28;20686;-88
2021/11/05 13:02:25;;;;;;;13.03;11.50;;;;;;;;;;5096105;28;20205;-87
2021/11/05 13:05:10;;;;;;;14.40;10.63;;;;;;;;;;5097602;28;20181;-90
2021/11/05 13:07:55;;;;;;;11.83;10.63;;;;;;;;;;5098393;28;20661;-89
2021/11/05 13:10:41;;;;;;;13.50;10.27;;;;;;;;;;5098498;28;20287;-88
2021/11/05 13:13:26;;;;;;;10.70;9.60;;;;;;;;;;5096047;28;20267;-88
2021/11/05 13:16:12;;;;;;;14.67;10.13;;;;;;;;;;5096908;28;20236;-90
2021/11/05 13:18:58;;;;;;;12.10;10.03;;;;;;;;;;5097411;28;20204;-89
2021/11/05 13:21:44;;;;;;;11.13;10.03;;;;;;;;;;5099072;28;20652;-92
2021/11/05 13:24:29;;;;;;;12.47;10.60;;;;;;;;;;5101257;28;20234;-92
2021/11/05 13:27:14;;;;;;;10.70;9.60;;;;;;;;;;5100479;28;20184;-89
2021/11/05 13:30:02;;;;;;;10.37;8.83;;;;;;;;;;5095972;28;20184;-87
2021/11/05 13:32:47;;;;;;;10.17;9.00;;;;;;;;;;5094738;28;20189;-88
2021/11/05 13:35:40;;;;;;;6.60;6.10;;;;;;;;;;5095106;28;20184;-87
2021/11/05 13:38:26;;;;;;;8.40;6.90;;;;;;;;;;5095377;28;20216;-88
2021/11/05 13:41:12;;;;;;;8.10;7.33;;;;;;;;;;5095627;28;20233;-91
2021/11/05 13:43:59;;;;;;;8.07;7.37;;;;;;;;;;5098339;28;20266;-91
2021/11/05 13:46:44;;;;;;;8.43;6.73;;;;;;;;;;5097844;28;20193;-91
2021/11/05 13:49:29;;;;;;;9.07;8.10;;;;;;;;;;5098386;28;20177;-90
2021/11/05 13:52:16;;;;;;;8.93;7.93;;;;;;;;;;5097863;28;20188;-92
2021/11/05 13:55:01;;;;;;;8.10;7.30;;;;;;;;;;5099228;28;20189;-89
2021/11/05 13:57:45;;;;;;;9.20;8.30;;;;;;;;;;5097364;28;20204;-91
2021/11/05 14:00:37;;;;;;;8.63;7.73;;;;;;;;;;5099091;28;20243;-91
2021/11/05 14:03:24;;;;;;;10.90;8.53;;;;;;;;;;5098467;28;20281;-89
2021/11/05 14:06:10;;;;;;;8.60;7.77;;;;;;;;;;5097698;28;20192;-89
2021/11/05 14:08:58;;;;;;;9.63;8.57;;;;;;;;;;5097699;28;20542;-91
2021/11/05 14:11:45;;;;;;;11.20;8.33;;;;;;;;;;5097191;28;20219;-90
2021/11/05 14:14:32;;;;;;;9.37;8.47;;;;;;;;;;5097764;28;20550;-90
2021/11/05 14:17:19;;;;;;;10.77;9.30;;;;;;;;;;5102134;28;20270;-89
2021/11/05 14:20:04;;;;;;;10.47;9.30;;;;;;;;;;5095422;28;20212;-88
2021/11/05 14:22:49;;;;;;;10.13;9.13;;;;;;;;;;5095568;28;20185;-89
2021/11/05 14:25:36;;;;;;;10.90;8.97;;;;;;;;;;5096011;28;20185;-89
2021/11/05 14:28:21;;;;;;;9.80;8.80;;;;;;;;;;5094169;28;20227;-85
2021/11/05 14:31:06;;;;;;;11.33;9.27;;;;;;;;;;5094444;28;20656;-85
2021/11/05 14:33:59;;;;;;;14.03;11.17;;;;;;;;;;5095231;28;20197;-89
2021/11/05 14:36:44;;;;;;;13.23;10.73;;;;;;;;;;5096956;28;20647;-88
2021/11/05 14:39:42;;;;;;;12.57;10.87;;;;;;;;;;5096861;28;20209;-90
2021/11/05 14:42:31;;;;;;;10.60;9.60;;;;;;;;;;5095498;28;20192;-87
2021/11/05 14:45:20;;;;;;;10.73;9.63;;;;;;;;;;5094115;28;20316;-87
2021/11/05 14:48:08;;;;;;;10.47;9.30;;;;;;;;;;5096470;28;20193;-89
2021/11/05 14:50:54;;;;;;;10.57;9.43;;;;;;;;;;5098036;28;20655;-92
2021/11/05 14:53:39;;;;;;;10.53;9.43;;;;;;;;;;5098530;28;20449;-91
2021/11/05 14:56:30;;;;;;;12.93;9.20;;;;;;;;;;5098511;28;20205;-90
2021/11/05 14:59:19;;;;;;;11.47;9.60;;;;;;;;;;5099064;28;20319;-91
2021/11/05 15:02:04;;;;;;;15.13;10.67;;;;;;;;;;5099477;28;20266;-92
2021/11/05 15:04:49;;;;;;;12.23;9.60;;;;;;;;;;5098512;28;20583;-90
2021/11/05 15:07:34;;;;;;;11.33;10.20;;;;;;;;;;5098267;28;20201;-91
2021/11/05 15:10:21;;;;;;;10.90;9.80;;;;;;;;;;5095240;28;20205;-88
2021/11/05 15:13:06;;;;;;;11.43;9.73;;;;;;;;;;5094193;28;20247;-86
2021/11/05 15:15:56;;;;;;;11.57;9.30;;;;;;;;;;5094070;28;20197;-90
2021/11/05 15:18:41;;;;;;;10.30;9.20;;;;;;;;;;5094300;28;20244;-87
2021/11/05 15:21:26;;;;;;;10.53;9.00;;;;;;;;;;5091681;28;20657;-84
2021/11/05 15:24:11;;;;;;;12.33;9.37;;;;;;;;;;5094242;28;20184;-89
2021/11/05 15:26:56;;;;;;;9.57;7.80;;;;;;;;;;5093925;28;20181;-88
2021/11/05 15:29:41;;;;;;;10.17;8.97;;;;;;;;;;5093029;28;20177;-87
2021/11/05 15:32:28;;;;;;;9.43;8.53;;;;;;;;;;5091876;28;20553;-87
2021/11/05 15:35:13;;;;;;;13.57;9.00;;;;;;;;;;5091592;28;20277;-85
2021/11/05 15:37:59;;;;;;;10.43;8.70;;;;;;;;;;5092053;28;20287;-88
2021/11/05 15:40:45;;;;;;;13.73;9.70;;;;;;;;;;5094358;28;20314;-87
2021/11/05 15:43:31;;;;;;;15.20;10.37;;;;;;;;;;5096595;28;20606;-88
2021/11/05 15:46:16;;;;;;;18.37;10.30;;;;;;;;;;5095083;28;20185;-87
2021/11/05 15:49:03;;;;;;;17.40;10.03;;;;;;;;;;5095992;28;20625;-88
2021/11/05 15:51:48;;;;;;;11.57;9.10;;;;;;;;;;5095175;28;20319;-87
2021/11/05 15:54:33;;;;;;;11.80;9.10;;;;;;;;;;5096229;28;20601;-88
2021/11/05 15:57:18;;;;;;;10.77;9.43;;;;;;;;;;5097059;28;20189;-88
2021/11/05 16:00:06;;;;;;;13.50;10.30;;;;;;;;;;5094914;28;20745;-84
2021/11/05 16:02:51;;;;;;;17.17;15.00;;;;;;;;;;5095938;28;20212;-87
2021/11/05 16:05:37;;;;;;;19.20;15.60;;;;;;;;;;5094621;28;20592;-84
2021/11/05 16:08:23;;;;;;;14.57;12.93;;;;;;;;;;5094961;28;20227;-85
2021/11/05 16:11:08;;;;;;;16.90;10.63;;;;;;;;;;5094399;28;20644;-83
2021/11/05 16:13:53;;;;;;;11.47;8.70;;;;;;;;;;5094950;28;20192;-87
2021/11/05 16:16:38;;;;;;;11.37;9.57;;;;;;;;;;5094044;28;20244;-86
2021/11/05 16:19:23;;;;;;;16.43;8.67;;;;;;;;;;5094358;28;20230;-85
2021/11/05 16:22:09;;;;;;;11.73;8.87;;;;;;;;;;5094254;28;20735;-84
2021/11/05 16:24:54;;;;;;;12.50;9.80;;;;;;;;;;5094567;28;20221;-89